sensor_id;sensor_type;location;lat;lon;timestamp;P1;durP1;ratioP1;P2;durP2;ratioP2
75963;SDS011;64646;44.726;37.764;2022-10-29T00:04:45;4.35;;;2.03;;
75963;SDS011;64646;44.726;37.764;2022-10-29T00:06:02;5.80;;;2.00;;
75963;SDS011;64646;44.726;37.764;2022-10-29T00:10:39;4.45;;;1.60;;
75963;SDS011;64646;44.726;37.764;2022-10-29T00:12:36;5.72;;;2.60;;
75963;SDS011;64646;44.726;37.764;2022-10-29T00:14:26;5.45;;;2.15;;
75963;SDS011;64646;44.726;37.764;2022-10-29T00:15:27;5.10;;;2.10;;
75963;SDS011;64646;44.726;37.764;2022-10-29T00:18:28;3.85;;;1.70;;
75963;SDS011;64646;44.726;37.764;2022-10-29T00:20:25;4.53;;;1.88;;
75963;SDS011;64646;44.726;37.764;2022-10-29T00:21:27;4.55;;;2.20;;
75963;SDS011;64646;44.726;37.764;2022-10-29T00:28:16;4.07;;;1.73;;
75963;SDS011;64646;44.726;37.764;2022-10-29T00:31:02;4.32;;;1.83;;
75963;SDS011;64646;44.726;37.764;2022-10-29T00:36:28;4.80;;;1.77;;
75963;SDS011;64646;44.726;37.764;2022-10-29T00:42:52;3.90;;;1.83;;
75963;SDS011;64646;44.726;37.764;2022-10-29T00:46:59;3.92;;;1.75;;
75963;SDS011;64646;44.726;37.764;2022-10-29T00:48:02;4.25;;;1.95;;
75963;SDS011;64646;44.726;37.764;2022-10-29T00:49:03;4.80;;;1.80;;
75963;SDS011;64646;44.726;37.764;2022-10-29T00:50:08;4.15;;;1.63;;
75963;SDS011;64646;44.726;37.764;2022-10-29T00:52:45;4.72;;;1.80;;
75963;SDS011;64646;44.726;37.764;2022-10-29T00:53:51;4.93;;;1.83;;
75963;SDS011;64646;44.726;37.764;2022-10-29T01:01:11;3.58;;;1.38;;
75963;SDS011;64646;44.726;37.764;2022-10-29T01:03:31;6.05;;;2.00;;
75963;SDS011;64646;44.726;37.764;2022-10-29T01:04:33;4.90;;;2.00;;
75963;SDS011;64646;44.726;37.764;2022-10-29T01:05:36;4.18;;;1.88;;
75963;SDS011;64646;44.726;37.764;2022-10-29T01:08:14;6.78;;;2.47;;
75963;SDS011;64646;44.726;37.764;2022-10-29T01:09:16;3.42;;;1.58;;
75963;SDS011;64646;44.726;37.764;2022-10-29T01:10:18;4.95;;;1.80;;
75963;SDS011;64646;44.726;37.764;2022-10-29T01:19:00;3.33;;;1.52;;
75963;SDS011;64646;44.726;37.764;2022-10-29T01:25:08;4.30;;;1.60;;
75963;SDS011;64646;44.726;37.764;2022-10-29T01:51:47;3.38;;;1.35;;
75963;SDS011;64646;44.726;37.764;2022-10-29T01:52:50;3.70;;;1.23;;
75963;SDS011;64646;44.726;37.764;2022-10-29T01:59:39;4.10;;;1.70;;
75963;SDS011;64646;44.726;37.764;2022-10-29T02:09:45;4.30;;;1.65;;
75963;SDS011;64646;44.726;37.764;2022-10-29T02:18:40;3.22;;;1.48;;
75963;SDS011;64646;44.726;37.764;2022-10-29T02:23:16;3.08;;;1.33;;
75963;SDS011;64646;44.726;37.764;2022-10-29T02:24:18;3.75;;;1.60;;
75963;SDS011;64646;44.726;37.764;2022-10-29T02:32:22;4.47;;;1.77;;
75963;SDS011;64646;44.726;37.764;2022-10-29T02:37:21;3.58;;;1.52;;
75963;SDS011;64646;44.726;37.764;2022-10-29T02:38:22;3.05;;;1.27;;
75963;SDS011;64646;44.726;37.764;2022-10-29T02:40:19;3.85;;;1.23;;
75963;SDS011;64646;44.726;37.764;2022-10-29T02:41:20;4.07;;;1.27;;
75963;SDS011;64646;44.726;37.764;2022-10-29T02:43:09;3.28;;;1.30;;
75963;SDS011;64646;44.726;37.764;2022-10-29T02:46:39;3.63;;;1.60;;
75963;SDS011;64646;44.726;37.764;2022-10-29T02:47:41;5.00;;;1.40;;
75963;SDS011;64646;44.726;37.764;2022-10-29T02:48:42;4.25;;;1.65;;
75963;SDS011;64646;44.726;37.764;2022-10-29T02:50:32;4.32;;;1.33;;
75963;SDS011;64646;44.726;37.764;2022-10-29T02:52:51;2.60;;;1.20;;
75963;SDS011;64646;44.726;37.764;2022-10-29T02:54:48;7.53;;;1.38;;
75963;SDS011;64646;44.726;37.764;2022-10-29T02:57:15;2.67;;;1.15;;
75963;SDS011;64646;44.726;37.764;2022-10-29T02:58:16;2.50;;;1.02;;
75963;SDS011;64646;44.726;37.764;2022-10-29T02:59:17;4.03;;;1.27;;
75963;SDS011;64646;44.726;37.764;2022-10-29T03:00:19;3.97;;;1.20;;
75963;SDS011;64646;44.726;37.764;2022-10-29T03:02:16;4.20;;;1.20;;
75963;SDS011;64646;44.726;37.764;2022-10-29T03:11:42;4.20;;;1.15;;
75963;SDS011;64646;44.726;37.764;2022-10-29T03:12:44;3.53;;;1.30;;
75963;SDS011;64646;44.726;37.764;2022-10-29T03:13:45;2.10;;;0.95;;
75963;SDS011;64646;44.726;37.764;2022-10-29T03:14:46;3.72;;;1.10;;
75963;SDS011;64646;44.726;37.764;2022-10-29T03:19:04;2.30;;;1.02;;
75963;SDS011;64646;44.726;37.764;2022-10-29T03:20:53;2.30;;;1.27;;
75963;SDS011;64646;44.726;37.764;2022-10-29T03:23:20;2.97;;;1.20;;
75963;SDS011;64646;44.726;37.764;2022-10-29T03:25:18;3.00;;;1.23;;
75963;SDS011;64646;44.726;37.764;2022-10-29T03:27:15;3.47;;;1.23;;
75963;SDS011;64646;44.726;37.764;2022-10-29T03:28:17;3.35;;;1.17;;
75963;SDS011;64646;44.726;37.764;2022-10-29T03:30:17;2.72;;;1.23;;
75963;SDS011;64646;44.726;37.764;2022-10-29T03:33:02;3.75;;;1.30;;
75963;SDS011;64646;44.726;37.764;2022-10-29T03:37:12;3.63;;;1.40;;
75963;SDS011;64646;44.726;37.764;2022-10-29T03:39:08;2.90;;;1.55;;
75963;SDS011;64646;44.726;37.764;2022-10-29T03:41:20;3.65;;;1.15;;
75963;SDS011;64646;44.726;37.764;2022-10-29T03:43:33;3.35;;;1.05;;
75963;SDS011;64646;44.726;37.764;2022-10-29T03:45:30;3.53;;;1.20;;
75963;SDS011;64646;44.726;37.764;2022-10-29T03:46:32;2.65;;;1.23;;
75963;SDS011;64646;44.726;37.764;2022-10-29T03:47:33;3.00;;;1.20;;
75963;SDS011;64646;44.726;37.764;2022-10-29T03:51:14;4.05;;;1.45;;
75963;SDS011;64646;44.726;37.764;2022-10-29T03:52:15;3.00;;;1.20;;
75963;SDS011;64646;44.726;37.764;2022-10-29T03:56:44;3.65;;;1.10;;
75963;SDS011;64646;44.726;37.764;2022-10-29T04:04:40;3.53;;;1.20;;
75963;SDS011;64646;44.726;37.764;2022-10-29T04:07:39;4.55;;;1.15;;
75963;SDS011;64646;44.726;37.764;2022-10-29T04:09:36;3.05;;;1.52;;
75963;SDS011;64646;44.726;37.764;2022-10-29T04:12:10;3.50;;;1.55;;
75963;SDS011;64646;44.726;37.764;2022-10-29T04:14:46;4.60;;;1.35;;
75963;SDS011;64646;44.726;37.764;2022-10-29T04:17:48;6.60;;;1.38;;
75963;SDS011;64646;44.726;37.764;2022-10-29T04:19:46;3.45;;;1.20;;
75963;SDS011;64646;44.726;37.764;2022-10-29T04:22:53;5.72;;;1.60;;
75963;SDS011;64646;44.726;37.764;2022-10-29T04:23:55;3.78;;;1.73;;
75963;SDS011;64646;44.726;37.764;2022-10-29T04:26:43;5.28;;;1.50;;
75963;SDS011;64646;44.726;37.764;2022-10-29T04:47:27;6.55;;;1.48;;
75963;SDS011;64646;44.726;37.764;2022-10-29T04:48:29;5.03;;;1.38;;
75963;SDS011;64646;44.726;37.764;2022-10-29T04:49:30;6.70;;;1.48;;
75963;SDS011;64646;44.726;37.764;2022-10-29T04:50:31;5.00;;;1.35;;
75963;SDS011;64646;44.726;37.764;2022-10-29T04:51:33;4.88;;;1.42;;
75963;SDS011;64646;44.726;37.764;2022-10-29T04:53:44;3.83;;;1.25;;
75963;SDS011;64646;44.726;37.764;2022-10-29T04:58:15;4.32;;;1.27;;
75963;SDS011;64646;44.726;37.764;2022-10-29T04:59:18;3.22;;;1.30;;
75963;SDS011;64646;44.726;37.764;2022-10-29T05:00:19;7.93;;;1.33;;
75963;SDS011;64646;44.726;37.764;2022-10-29T05:01:21;5.65;;;1.15;;
75963;SDS011;64646;44.726;37.764;2022-10-29T05:02:23;4.90;;;1.48;;
75963;SDS011;64646;44.726;37.764;2022-10-29T05:04:12;6.03;;;1.30;;
75963;SDS011;64646;44.726;37.764;2022-10-29T05:07:12;5.03;;;1.85;;
75963;SDS011;64646;44.726;37.764;2022-10-29T05:08:13;6.25;;;1.50;;
75963;SDS011;64646;44.726;37.764;2022-10-29T05:12:12;4.93;;;1.55;;
75963;SDS011;64646;44.726;37.764;2022-10-29T05:13:14;5.95;;;1.77;;
75963;SDS011;64646;44.726;37.764;2022-10-29T05:14:15;2.90;;;1.33;;
75963;SDS011;64646;44.726;37.764;2022-10-29T05:15:16;3.55;;;1.60;;
75963;SDS011;64646;44.726;37.764;2022-10-29T05:16:18;2.78;;;1.50;;
75963;SDS011;64646;44.726;37.764;2022-10-29T05:17:19;2.95;;;1.00;;
75963;SDS011;64646;44.726;37.764;2022-10-29T05:18:20;4.97;;;1.50;;
75963;SDS011;64646;44.726;37.764;2022-10-29T05:19:21;4.22;;;1.67;;
75963;SDS011;64646;44.726;37.764;2022-10-29T05:20:23;4.13;;;1.38;;
75963;SDS011;64646;44.726;37.764;2022-10-29T05:21:25;2.85;;;1.23;;
75963;SDS011;64646;44.726;37.764;2022-10-29T05:22:26;4.53;;;1.40;;
75963;SDS011;64646;44.726;37.764;2022-10-29T05:23:27;6.53;;;1.52;;
75963;SDS011;64646;44.726;37.764;2022-10-29T05:24:29;4.10;;;1.58;;
75963;SDS011;64646;44.726;37.764;2022-10-29T05:25:31;5.63;;;1.10;;
75963;SDS011;64646;44.726;37.764;2022-10-29T05:26:33;3.80;;;1.40;;
75963;SDS011;64646;44.726;37.764;2022-10-29T05:28:30;4.25;;;1.20;;
75963;SDS011;64646;44.726;37.764;2022-10-29T05:29:32;5.00;;;1.50;;
75963;SDS011;64646;44.726;37.764;2022-10-29T05:30:33;9.68;;;1.40;;
75963;SDS011;64646;44.726;37.764;2022-10-29T05:33:11;4.75;;;1.13;;
75963;SDS011;64646;44.726;37.764;2022-10-29T05:34:15;3.90;;;1.25;;
75963;SDS011;64646;44.726;37.764;2022-10-29T05:35:16;3.15;;;1.23;;
75963;SDS011;64646;44.726;37.764;2022-10-29T05:36:17;4.80;;;1.40;;
75963;SDS011;64646;44.726;37.764;2022-10-29T05:37:19;4.15;;;1.17;;
75963;SDS011;64646;44.726;37.764;2022-10-29T05:38:20;5.82;;;1.40;;
75963;SDS011;64646;44.726;37.764;2022-10-29T05:39:21;4.50;;;1.30;;
75963;SDS011;64646;44.726;37.764;2022-10-29T05:40:22;3.30;;;1.27;;
75963;SDS011;64646;44.726;37.764;2022-10-29T05:41:28;1.98;;;1.02;;
75963;SDS011;64646;44.726;37.764;2022-10-29T05:42:30;3.33;;;1.00;;
75963;SDS011;64646;44.726;37.764;2022-10-29T05:43:31;3.53;;;1.10;;
75963;SDS011;64646;44.726;37.764;2022-10-29T05:44:32;4.22;;;1.33;;
75963;SDS011;64646;44.726;37.764;2022-10-29T05:45:34;5.03;;;1.25;;
75963;SDS011;64646;44.726;37.764;2022-10-29T05:48:36;4.10;;;1.55;;
75963;SDS011;64646;44.726;37.764;2022-10-29T05:51:17;4.65;;;1.42;;
75963;SDS011;64646;44.726;37.764;2022-10-29T05:52:19;3.40;;;1.25;;
75963;SDS011;64646;44.726;37.764;2022-10-29T05:53:20;3.15;;;1.38;;
75963;SDS011;64646;44.726;37.764;2022-10-29T05:54:21;4.63;;;1.85;;
75963;SDS011;64646;44.726;37.764;2022-10-29T05:55:23;3.30;;;1.58;;
75963;SDS011;64646;44.726;37.764;2022-10-29T05:56:24;3.00;;;1.50;;
75963;SDS011;64646;44.726;37.764;2022-10-29T05:57:26;5.00;;;1.42;;
75963;SDS011;64646;44.726;37.764;2022-10-29T05:58:28;3.47;;;1.50;;
75963;SDS011;64646;44.726;37.764;2022-10-29T05:59:29;5.60;;;1.50;;
75963;SDS011;64646;44.726;37.764;2022-10-29T06:00:33;4.60;;;1.48;;
75963;SDS011;64646;44.726;37.764;2022-10-29T06:01:36;5.65;;;1.40;;
75963;SDS011;64646;44.726;37.764;2022-10-29T06:02:37;2.72;;;1.25;;
75963;SDS011;64646;44.726;37.764;2022-10-29T06:03:39;3.17;;;1.55;;
75963;SDS011;64646;44.726;37.764;2022-10-29T06:04:40;3.53;;;1.40;;
75963;SDS011;64646;44.726;37.764;2022-10-29T06:05:45;3.50;;;1.38;;
75963;SDS011;64646;44.726;37.764;2022-10-29T06:06:47;3.92;;;1.35;;
75963;SDS011;64646;44.726;37.764;2022-10-29T06:07:52;2.40;;;1.27;;
75963;SDS011;64646;44.726;37.764;2022-10-29T06:08:55;3.78;;;1.30;;
75963;SDS011;64646;44.726;37.764;2022-10-29T06:09:56;3.25;;;1.75;;
75963;SDS011;64646;44.726;37.764;2022-10-29T06:11:00;5.90;;;1.60;;
75963;SDS011;64646;44.726;37.764;2022-10-29T06:12:02;4.70;;;1.42;;
75963;SDS011;64646;44.726;37.764;2022-10-29T06:13:17;3.15;;;1.55;;
75963;SDS011;64646;44.726;37.764;2022-10-29T06:14:24;4.25;;;1.40;;
75963;SDS011;64646;44.726;37.764;2022-10-29T06:15:25;2.38;;;1.10;;
75963;SDS011;64646;44.726;37.764;2022-10-29T06:16:27;3.90;;;1.50;;
75963;SDS011;64646;44.726;37.764;2022-10-29T06:17:28;5.35;;;1.75;;
75963;SDS011;64646;44.726;37.764;2022-10-29T06:18:29;4.28;;;1.30;;
75963;SDS011;64646;44.726;37.764;2022-10-29T06:19:31;4.57;;;1.67;;
75963;SDS011;64646;44.726;37.764;2022-10-29T06:20:32;5.82;;;1.50;;
75963;SDS011;64646;44.726;37.764;2022-10-29T06:21:33;3.30;;;1.38;;
75963;SDS011;64646;44.726;37.764;2022-10-29T06:22:35;2.72;;;1.27;;
75963;SDS011;64646;44.726;37.764;2022-10-29T06:23:36;2.78;;;1.10;;
75963;SDS011;64646;44.726;37.764;2022-10-29T06:24:38;2.97;;;1.27;;
75963;SDS011;64646;44.726;37.764;2022-10-29T06:25:39;4.47;;;1.38;;
75963;SDS011;64646;44.726;37.764;2022-10-29T06:26:40;3.17;;;1.35;;
75963;SDS011;64646;44.726;37.764;2022-10-29T06:27:41;2.30;;;1.20;;
75963;SDS011;64646;44.726;37.764;2022-10-29T06:28:43;5.32;;;1.88;;
75963;SDS011;64646;44.726;37.764;2022-10-29T06:29:44;2.97;;;1.40;;
75963;SDS011;64646;44.726;37.764;2022-10-29T06:30:46;2.90;;;1.40;;
75963;SDS011;64646;44.726;37.764;2022-10-29T06:31:49;2.97;;;1.25;;
75963;SDS011;64646;44.726;37.764;2022-10-29T06:32:52;4.68;;;1.42;;
75963;SDS011;64646;44.726;37.764;2022-10-29T06:34:55;3.63;;;1.20;;
75963;SDS011;64646;44.726;37.764;2022-10-29T06:35:57;3.05;;;1.50;;
75963;SDS011;64646;44.726;37.764;2022-10-29T06:37:00;3.45;;;1.38;;
75963;SDS011;64646;44.726;37.764;2022-10-29T06:38:01;4.93;;;1.23;;
75963;SDS011;64646;44.726;37.764;2022-10-29T06:39:03;3.22;;;1.23;;
75963;SDS011;64646;44.726;37.764;2022-10-29T06:40:04;5.90;;;1.27;;
75963;SDS011;64646;44.726;37.764;2022-10-29T06:41:06;3.75;;;1.17;;
75963;SDS011;64646;44.726;37.764;2022-10-29T06:42:09;4.32;;;1.00;;
75963;SDS011;64646;44.726;37.764;2022-10-29T06:43:10;3.83;;;1.55;;
75963;SDS011;64646;44.726;37.764;2022-10-29T06:44:24;4.43;;;1.90;;
75963;SDS011;64646;44.726;37.764;2022-10-29T06:45:26;5.15;;;2.00;;
75963;SDS011;64646;44.726;37.764;2022-10-29T06:46:28;4.22;;;1.60;;
75963;SDS011;64646;44.726;37.764;2022-10-29T06:47:30;6.30;;;1.67;;
75963;SDS011;64646;44.726;37.764;2022-10-29T06:48:37;3.30;;;1.45;;
75963;SDS011;64646;44.726;37.764;2022-10-29T06:49:38;4.40;;;1.85;;
75963;SDS011;64646;44.726;37.764;2022-10-29T06:50:40;3.97;;;1.77;;
75963;SDS011;64646;44.726;37.764;2022-10-29T06:51:41;5.38;;;1.70;;
75963;SDS011;64646;44.726;37.764;2022-10-29T06:52:43;9.15;;;2.33;;
75963;SDS011;64646;44.726;37.764;2022-10-29T06:53:44;5.30;;;1.50;;
75963;SDS011;64646;44.726;37.764;2022-10-29T06:54:45;4.57;;;1.60;;
75963;SDS011;64646;44.726;37.764;2022-10-29T06:55:46;5.10;;;1.52;;
75963;SDS011;64646;44.726;37.764;2022-10-29T06:56:48;4.32;;;1.52;;
75963;SDS011;64646;44.726;37.764;2022-10-29T06:57:56;5.80;;;1.60;;
75963;SDS011;64646;44.726;37.764;2022-10-29T06:59:16;4.95;;;1.52;;
75963;SDS011;64646;44.726;37.764;2022-10-29T07:00:27;4.72;;;1.40;;
75963;SDS011;64646;44.726;37.764;2022-10-29T07:01:35;5.70;;;1.70;;
75963;SDS011;64646;44.726;37.764;2022-10-29T07:02:36;6.97;;;2.17;;
75963;SDS011;64646;44.726;37.764;2022-10-29T07:03:38;7.57;;;1.70;;
75963;SDS011;64646;44.726;37.764;2022-10-29T07:04:39;8.82;;;2.17;;
75963;SDS011;64646;44.726;37.764;2022-10-29T07:05:40;5.10;;;1.50;;
75963;SDS011;64646;44.726;37.764;2022-10-29T07:06:41;7.10;;;1.65;;
75963;SDS011;64646;44.726;37.764;2022-10-29T07:07:43;7.05;;;1.77;;
75963;SDS011;64646;44.726;37.764;2022-10-29T07:08:44;5.43;;;1.90;;
75963;SDS011;64646;44.726;37.764;2022-10-29T07:09:45;6.75;;;2.00;;
75963;SDS011;64646;44.726;37.764;2022-10-29T07:10:49;7.05;;;1.80;;
75963;SDS011;64646;44.726;37.764;2022-10-29T07:11:51;9.85;;;1.75;;
75963;SDS011;64646;44.726;37.764;2022-10-29T07:12:52;4.47;;;1.80;;
75963;SDS011;64646;44.726;37.764;2022-10-29T07:13:54;9.35;;;2.45;;
75963;SDS011;64646;44.726;37.764;2022-10-29T07:14:55;7.75;;;2.17;;
75963;SDS011;64646;44.726;37.764;2022-10-29T07:15:58;5.30;;;1.95;;
75963;SDS011;64646;44.726;37.764;2022-10-29T07:16:59;5.60;;;1.85;;
75963;SDS011;64646;44.726;37.764;2022-10-29T07:18:02;7.35;;;2.22;;
75963;SDS011;64646;44.726;37.764;2022-10-29T07:19:05;6.78;;;1.60;;
75963;SDS011;64646;44.726;37.764;2022-10-29T07:20:07;46.42;;;7.88;;
75963;SDS011;64646;44.726;37.764;2022-10-29T07:21:10;14.40;;;3.30;;
75963;SDS011;64646;44.726;37.764;2022-10-29T07:22:12;23.98;;;4.38;;
75963;SDS011;64646;44.726;37.764;2022-10-29T07:23:13;20.33;;;4.20;;
75963;SDS011;64646;44.726;37.764;2022-10-29T07:24:15;24.08;;;4.60;;
75963;SDS011;64646;44.726;37.764;2022-10-29T07:25:17;25.30;;;5.38;;
75963;SDS011;64646;44.726;37.764;2022-10-29T07:26:19;29.70;;;5.00;;
75963;SDS011;64646;44.726;37.764;2022-10-29T07:27:20;29.23;;;5.53;;
75963;SDS011;64646;44.726;37.764;2022-10-29T07:28:23;28.17;;;5.70;;
75963;SDS011;64646;44.726;37.764;2022-10-29T07:30:26;29.10;;;6.47;;
75963;SDS011;64646;44.726;37.764;2022-10-29T07:31:28;33.40;;;6.90;;
75963;SDS011;64646;44.726;37.764;2022-10-29T07:32:30;30.33;;;6.32;;
75963;SDS011;64646;44.726;37.764;2022-10-29T07:33:32;26.33;;;6.45;;
75963;SDS011;64646;44.726;37.764;2022-10-29T07:34:34;28.40;;;6.70;;
75963;SDS011;64646;44.726;37.764;2022-10-29T07:35:35;28.30;;;7.38;;
75963;SDS011;64646;44.726;37.764;2022-10-29T07:36:37;28.17;;;7.13;;
75963;SDS011;64646;44.726;37.764;2022-10-29T07:37:38;32.30;;;7.13;;
75963;SDS011;64646;44.726;37.764;2022-10-29T07:38:41;25.45;;;7.30;;
75963;SDS011;64646;44.726;37.764;2022-10-29T07:40:47;27.70;;;6.78;;
75963;SDS011;64646;44.726;37.764;2022-10-29T07:41:49;26.35;;;6.47;;
75963;SDS011;64646;44.726;37.764;2022-10-29T07:42:51;26.30;;;6.50;;
75963;SDS011;64646;44.726;37.764;2022-10-29T07:43:53;30.55;;;6.90;;
75963;SDS011;64646;44.726;37.764;2022-10-29T07:44:54;30.40;;;6.97;;
75963;SDS011;64646;44.726;37.764;2022-10-29T07:45:55;29.13;;;7.07;;
75963;SDS011;64646;44.726;37.764;2022-10-29T07:46:57;28.77;;;6.93;;
75963;SDS011;64646;44.726;37.764;2022-10-29T07:47:59;27.33;;;6.38;;
75963;SDS011;64646;44.726;37.764;2022-10-29T07:49:02;26.30;;;6.82;;
75963;SDS011;64646;44.726;37.764;2022-10-29T07:50:03;26.50;;;6.78;;
75963;SDS011;64646;44.726;37.764;2022-10-29T07:51:05;29.25;;;7.35;;
75963;SDS011;64646;44.726;37.764;2022-10-29T07:52:06;29.23;;;7.07;;
75963;SDS011;64646;44.726;37.764;2022-10-29T07:53:08;26.58;;;6.40;;
75963;SDS011;64646;44.726;37.764;2022-10-29T07:54:10;23.45;;;6.43;;
75963;SDS011;64646;44.726;37.764;2022-10-29T07:55:11;29.27;;;7.03;;
75963;SDS011;64646;44.726;37.764;2022-10-29T07:56:12;22.42;;;6.47;;
75963;SDS011;64646;44.726;37.764;2022-10-29T07:57:14;27.95;;;6.30;;
75963;SDS011;64646;44.726;37.764;2022-10-29T07:58:15;30.00;;;6.57;;
75963;SDS011;64646;44.726;37.764;2022-10-29T07:59:16;23.80;;;6.45;;
75963;SDS011;64646;44.726;37.764;2022-10-29T08:00:19;22.98;;;6.72;;
75963;SDS011;64646;44.726;37.764;2022-10-29T08:01:20;24.58;;;7.05;;
75963;SDS011;64646;44.726;37.764;2022-10-29T08:02:21;29.23;;;6.40;;
75963;SDS011;64646;44.726;37.764;2022-10-29T08:03:23;23.80;;;6.40;;
75963;SDS011;64646;44.726;37.764;2022-10-29T08:04:24;26.70;;;6.47;;
75963;SDS011;64646;44.726;37.764;2022-10-29T08:05:26;18.90;;;5.28;;
75963;SDS011;64646;44.726;37.764;2022-10-29T08:06:34;23.48;;;5.70;;
75963;SDS011;64646;44.726;37.764;2022-10-29T08:07:36;18.88;;;5.40;;
75963;SDS011;64646;44.726;37.764;2022-10-29T08:09:25;19.60;;;5.10;;
75963;SDS011;64646;44.726;37.764;2022-10-29T08:10:27;25.05;;;5.40;;
75963;SDS011;64646;44.726;37.764;2022-10-29T08:11:30;25.95;;;4.75;;
75963;SDS011;64646;44.726;37.764;2022-10-29T08:13:50;23.35;;;5.60;;
75963;SDS011;64646;44.726;37.764;2022-10-29T08:14:51;21.55;;;5.05;;
75963;SDS011;64646;44.726;37.764;2022-10-29T08:15:53;15.95;;;4.95;;
75963;SDS011;64646;44.726;37.764;2022-10-29T08:16:54;22.75;;;5.25;;
75963;SDS011;64646;44.726;37.764;2022-10-29T08:17:56;19.20;;;4.60;;
75963;SDS011;64646;44.726;37.764;2022-10-29T08:18:57;20.27;;;4.75;;
75963;SDS011;64646;44.726;37.764;2022-10-29T08:19:58;18.65;;;5.13;;
75963;SDS011;64646;44.726;37.764;2022-10-29T08:21:02;24.35;;;5.28;;
75963;SDS011;64646;44.726;37.764;2022-10-29T08:22:04;21.13;;;4.18;;
75963;SDS011;64646;44.726;37.764;2022-10-29T08:23:06;21.05;;;5.10;;
75963;SDS011;64646;44.726;37.764;2022-10-29T08:24:08;18.52;;;4.63;;
75963;SDS011;64646;44.726;37.764;2022-10-29T08:25:10;19.05;;;4.95;;
75963;SDS011;64646;44.726;37.764;2022-10-29T08:26:14;24.15;;;5.45;;
75963;SDS011;64646;44.726;37.764;2022-10-29T08:27:15;18.35;;;4.68;;
75963;SDS011;64646;44.726;37.764;2022-10-29T08:28:16;21.23;;;4.32;;
75963;SDS011;64646;44.726;37.764;2022-10-29T08:29:17;22.30;;;4.78;;
75963;SDS011;64646;44.726;37.764;2022-10-29T08:30:19;19.10;;;5.05;;
75963;SDS011;64646;44.726;37.764;2022-10-29T08:31:20;20.45;;;4.38;;
75963;SDS011;64646;44.726;37.764;2022-10-29T08:32:21;18.83;;;4.45;;
75963;SDS011;64646;44.726;37.764;2022-10-29T08:33:23;14.45;;;4.28;;
75963;SDS011;64646;44.726;37.764;2022-10-29T08:34:27;19.20;;;5.05;;
75963;SDS011;64646;44.726;37.764;2022-10-29T08:35:29;16.63;;;3.67;;
75963;SDS011;64646;44.726;37.764;2022-10-29T08:36:30;15.27;;;4.25;;
75963;SDS011;64646;44.726;37.764;2022-10-29T08:37:32;18.73;;;4.38;;
75963;SDS011;64646;44.726;37.764;2022-10-29T08:38:33;13.63;;;3.97;;
75963;SDS011;64646;44.726;37.764;2022-10-29T08:39:34;20.55;;;4.40;;
75963;SDS011;64646;44.726;37.764;2022-10-29T08:43:35;16.75;;;4.07;;
75963;SDS011;64646;44.726;37.764;2022-10-29T08:44:59;15.80;;;3.67;;
75963;SDS011;64646;44.726;37.764;2022-10-29T08:46:34;17.83;;;3.75;;
75963;SDS011;64646;44.726;37.764;2022-10-29T08:52:05;13.93;;;3.75;;
75963;SDS011;64646;44.726;37.764;2022-10-29T08:54:23;19.25;;;3.88;;
75963;SDS011;64646;44.726;37.764;2022-10-29T08:55:34;13.15;;;3.42;;
75963;SDS011;64646;44.726;37.764;2022-10-29T08:56:38;12.25;;;3.30;;
75963;SDS011;64646;44.726;37.764;2022-10-29T08:57:53;14.85;;;3.85;;
75963;SDS011;64646;44.726;37.764;2022-10-29T08:59:00;12.43;;;4.50;;
75963;SDS011;64646;44.726;37.764;2022-10-29T09:00:17;11.70;;;3.30;;
75963;SDS011;64646;44.726;37.764;2022-10-29T09:01:21;15.20;;;3.65;;
75963;SDS011;64646;44.726;37.764;2022-10-29T09:02:23;10.50;;;3.35;;
75963;SDS011;64646;44.726;37.764;2022-10-29T09:03:26;13.18;;;3.78;;
75963;SDS011;64646;44.726;37.764;2022-10-29T09:05:39;14.90;;;4.10;;
75963;SDS011;64646;44.726;37.764;2022-10-29T09:09:53;12.63;;;2.60;;
75963;SDS011;64646;44.726;37.764;2022-10-29T09:11:02;13.25;;;3.05;;
75963;SDS011;64646;44.726;37.764;2022-10-29T09:13:51;13.77;;;3.85;;
75963;SDS011;64646;44.726;37.764;2022-10-29T09:25:47;13.75;;;3.45;;
75963;SDS011;64646;44.726;37.764;2022-10-29T09:26:55;11.52;;;2.95;;
75963;SDS011;64646;44.726;37.764;2022-10-29T09:29:00;13.15;;;3.45;;
75963;SDS011;64646;44.726;37.764;2022-10-29T09:31:24;10.13;;;3.92;;
75963;SDS011;64646;44.726;37.764;2022-10-29T09:32:56;11.00;;;3.25;;
75963;SDS011;64646;44.726;37.764;2022-10-29T09:34:03;11.05;;;3.50;;
75963;SDS011;64646;44.726;37.764;2022-10-29T09:35:59;10.48;;;3.03;;
75963;SDS011;64646;44.726;37.764;2022-10-29T09:37:03;11.48;;;2.90;;
75963;SDS011;64646;44.726;37.764;2022-10-29T09:44:56;9.50;;;2.60;;
75963;SDS011;64646;44.726;37.764;2022-10-29T09:46:00;7.80;;;2.78;;
75963;SDS011;64646;44.726;37.764;2022-10-29T09:51:31;11.70;;;2.53;;
75963;SDS011;64646;44.726;37.764;2022-10-29T09:53:51;9.80;;;2.80;;
75963;SDS011;64646;44.726;37.764;2022-10-29T09:54:53;9.23;;;3.67;;
75963;SDS011;64646;44.726;37.764;2022-10-29T09:55:54;9.65;;;2.88;;
75963;SDS011;64646;44.726;37.764;2022-10-29T09:56:56;11.30;;;3.50;;
75963;SDS011;64646;44.726;37.764;2022-10-29T09:58:00;10.88;;;3.15;;
75963;SDS011;64646;44.726;37.764;2022-10-29T09:59:15;9.23;;;3.20;;
75963;SDS011;64646;44.726;37.764;2022-10-29T10:04:05;10.70;;;2.92;;
75963;SDS011;64646;44.726;37.764;2022-10-29T10:07:00;11.00;;;2.70;;
75963;SDS011;64646;44.726;37.764;2022-10-29T10:09:56;7.97;;;2.80;;
75963;SDS011;64646;44.726;37.764;2022-10-29T10:11:03;8.90;;;2.47;;
75963;SDS011;64646;44.726;37.764;2022-10-29T10:12:06;9.63;;;2.65;;
75963;SDS011;64646;44.726;37.764;2022-10-29T10:13:10;8.82;;;2.28;;
75963;SDS011;64646;44.726;37.764;2022-10-29T10:15:58;10.65;;;2.42;;
75963;SDS011;64646;44.726;37.764;2022-10-29T10:17:02;10.65;;;2.85;;
75963;SDS011;64646;44.726;37.764;2022-10-29T10:18:04;7.88;;;2.67;;
75963;SDS011;64646;44.726;37.764;2022-10-29T10:20:27;11.85;;;3.00;;
75963;SDS011;64646;44.726;37.764;2022-10-29T10:21:39;9.80;;;2.70;;
75963;SDS011;64646;44.726;37.764;2022-10-29T10:22:45;10.70;;;3.13;;
75963;SDS011;64646;44.726;37.764;2022-10-29T10:23:48;9.20;;;3.15;;
75963;SDS011;64646;44.726;37.764;2022-10-29T10:24:53;7.22;;;2.22;;
75963;SDS011;64646;44.726;37.764;2022-10-29T10:25:56;9.27;;;2.80;;
75963;SDS011;64646;44.726;37.764;2022-10-29T10:26:59;8.15;;;2.63;;
75963;SDS011;64646;44.726;37.764;2022-10-29T10:28:14;9.07;;;3.00;;
75963;SDS011;64646;44.726;37.764;2022-10-29T10:30:19;7.85;;;2.47;;
75963;SDS011;64646;44.726;37.764;2022-10-29T10:32:14;7.32;;;2.30;;
75963;SDS011;64646;44.726;37.764;2022-10-29T10:34:15;8.55;;;2.33;;
75963;SDS011;64646;44.726;37.764;2022-10-29T10:35:27;9.50;;;2.83;;
75963;SDS011;64646;44.726;37.764;2022-10-29T10:36:30;8.82;;;2.40;;
75963;SDS011;64646;44.726;37.764;2022-10-29T10:37:31;8.02;;;2.70;;
75963;SDS011;64646;44.726;37.764;2022-10-29T10:38:46;9.73;;;3.55;;
75963;SDS011;64646;44.726;37.764;2022-10-29T10:40:53;10.23;;;2.70;;
75963;SDS011;64646;44.726;37.764;2022-10-29T10:42:04;7.38;;;2.58;;
75963;SDS011;64646;44.726;37.764;2022-10-29T10:43:19;8.48;;;2.50;;
75963;SDS011;64646;44.726;37.764;2022-10-29T10:44:22;7.70;;;2.40;;
75963;SDS011;64646;44.726;37.764;2022-10-29T10:45:26;7.72;;;2.58;;
75963;SDS011;64646;44.726;37.764;2022-10-29T10:46:39;7.18;;;2.22;;
75963;SDS011;64646;44.726;37.764;2022-10-29T10:47:44;7.88;;;2.50;;
75963;SDS011;64646;44.726;37.764;2022-10-29T10:49:35;6.90;;;2.58;;
75963;SDS011;64646;44.726;37.764;2022-10-29T10:50:14;8.18;;;2.10;;